Time;durP1;ratioP1;P1;durP2;ratioP2;P2;SDS_P1;SDS_P2;PMS_P1;PMS_P2;Temp;Humidity;BMP_temperature;BMP_pressure;BME280_temperature;BME280_humidity;BME280_pressure;Samples;Min_cycle;Max_cycle;Signal;HPM_P1;HPM_P2
2023/10/18 00:02:19;;;;;;;11.43;3.50;;;;;;;;;;5114322;28;20039;-73
2023/10/18 00:05:25;;;;;;;10.23;4.00;;;;;;;;;;5117936;28;20047;-71
2023/10/18 00:08:30;;;;;;;8.60;4.10;;;;;;;;;;5118086;28;20039;-71
2023/10/18 00:11:35;;;;;;;9.40;3.60;;;;;;;;;;5117671;28;20035;-72
2023/10/18 00:14:40;;;;;;;9.63;3.63;;;;;;;;;;5117780;28;20044;-72
2023/10/18 00:17:44;;;;;;;17.23;4.28;;;;;;;;;;5118722;28;20032;-72
2023/10/18 00:20:58;;;;;;;5.45;3.58;;;17.10;99.90;;;;;;5118499;28;20604;-72
2023/10/18 00:24:03;;;;;;;8.48;3.42;;;;;;;;;;5114425;28;20052;-73
2023/10/18 00:27:09;;;;;;;8.70;3.90;;;;;;;;;;5114522;28;20043;-72
2023/10/18 00:30:13;;;;;;;6.93;3.35;;;;;;;;;;5114518;28;20180;-72
2023/10/18 00:33:19;;;;;;;7.60;3.47;;;17.00;99.90;;;;;;5113413;28;20036;-72
2023/10/18 00:36:24;;;;;;;7.50;3.65;;;;;;;;;;5114028;28;20047;-73
2023/10/18 00:39:28;;;;;;;10.63;7.97;;;;;;;;;;5114091;28;20039;-72
2023/10/18 00:42:35;;;;;;;7.88;4.20;;;;;;;;;;5113979;28;20486;-72
2023/10/18 00:45:43;;;;;;;10.25;3.25;;;17.20;99.90;;;;;;5113731;28;20035;-72
2023/10/18 00:48:48;;;;;;;7.28;3.05;;;;;;;;;;5113870;28;20050;-72
2023/10/18 00:51:52;;;;;;;4.90;2.80;;;;;;;;;;5112973;28;20035;-73
2023/10/18 00:54:57;;;;;;;4.75;2.60;;;;;;;;;;5113319;28;20039;-73
2023/10/18 00:58:08;;;;;;;4.30;2.03;;;15.60;98.40;;;;;;5113427;28;20040;-72
2023/10/18 01:01:13;;;;;;;4.57;2.13;;;;;;;;;;5112985;28;20066;-73
2023/10/18 01:04:20;;;;;;;4.22;2.00;;;;;;;;;;5112374;28;20048;-73
2023/10/18 01:07:24;;;;;;;2.88;2.00;;;;;;;;;;5113660;28;20039;-73
2023/10/18 01:10:30;;;;;;;7.57;3.40;;;;;;;;;;5112764;28;20040;-72
2023/10/18 01:13:40;;;;;;;5.55;3.05;;;;;;;;;;5112082;28;20043;-72
2023/10/18 01:16:44;;;;;;;9.60;3.50;;;16.90;99.90;;;;;;5113091;28;20043;-72
2023/10/18 01:19:49;;;;;;;9.02;3.53;;;;;;;;;;5112523;28;20031;-73
2023/10/18 01:22:57;;;;;;;7.95;3.88;;;;;;;;;;5113023;28;20040;-72
2023/10/18 01:26:01;;;;;;;4.90;3.55;;;;;;;;;;5112484;28;20032;-72
2023/10/18 01:29:08;;;;;;;7.97;3.63;;;;;;;;;;5112373;28;20039;-72
2023/10/18 01:32:13;;;;;;;7.70;3.75;;;;;;;;;;5111955;28;20028;-72
2023/10/18 01:35:17;;;;;;;5.63;3.70;;;;;;;;;;5112933;28;20048;-72
2023/10/18 01:38:25;;;;;;;7.10;3.75;;;;;;;;;;5112858;28;20036;-72
2023/10/18 01:41:30;;;;;;;8.57;4.70;;;;;;;;;;5112709;28;20400;-72
2023/10/18 01:44:34;;;;;;;7.75;3.55;;;;;;;;;;5112466;28;20027;-72
2023/10/18 01:47:40;;;;;;;10.13;5.07;;;;;;;;;;5112469;28;20039;-71
2023/10/18 01:50:50;;;;;;;6.70;3.70;;;16.10;99.90;;;;;;5112752;28;20032;-71
2023/10/18 01:54:02;;;;;;;6.60;3.70;;;;;;;;;;5112211;28;20036;-72
2023/10/18 01:57:11;;;;;;;16.48;4.18;;;;;;;;;;5111632;28;20052;-72
2023/10/18 02:00:25;;;;;;;9.07;3.75;;;;;;;;;;5111841;28;20036;-72
2023/10/18 02:03:29;;;;;;;9.32;4.57;;;;;;;;;;5111188;28;20052;-72
2023/10/18 02:06:34;;;;;;;7.90;4.63;;;;;;;;;;5111635;28;20032;-72
2023/10/18 02:09:52;;;;;;;9.18;4.60;;;;;;;;;;5112389;28;20031;-72
2023/10/18 02:12:56;;;;;;;9.80;4.78;;;;;;;;;;5111378;28;20031;-72
2023/10/18 02:16:09;;;;;;;7.75;4.47;;;;;;;;;;5111257;28;20043;-73
2023/10/18 02:19:15;;;;;;;6.93;4.32;;;;;;;;;;5111222;28;20039;-73
2023/10/18 02:22:19;;;;;;;9.13;5.18;;;;;;;;;;5112020;28;20447;-73
2023/10/18 02:28:46;;;;;;;7.63;3.92;;;;;;;;;;5111041;28;20035;-72
2023/10/18 02:31:57;;;;;;;9.52;4.57;;;16.50;99.90;;;;;;5111148;28;20043;-73
2023/10/18 02:35:04;;;;;;;10.05;4.05;;;;;;;;;;5111513;28;20039;-73
2023/10/18 02:38:08;;;;;;;8.82;4.40;;;;;;;;;;5111778;28;20035;-72
2023/10/18 02:41:20;;;;;;;6.38;4.70;;;;;;;;;;5112002;28;20027;-72
2023/10/18 02:44:28;;;;;;;7.85;4.47;;;;;;;;;;5111666;28;20035;-72
2023/10/18 02:47:35;;;;;;;4.10;3.30;;;;;;;;;;5110775;28;20036;-72
2023/10/18 02:50:39;;;;;;;5.55;3.67;;;;;;;;;;5111540;28;20031;-72
2023/10/18 02:53:44;;;;;;;5.93;3.63;;;;;;;;;;5111646;28;20043;-72
2023/10/18 02:56:52;;;;;;;8.85;3.47;;;;;;;;;;5111425;28;20044;-72
2023/10/18 02:59:57;;;;;;;6.00;3.78;;;;;;;;;;5110626;28;20036;-73
2023/10/18 03:03:01;;;;;;;8.63;3.97;;;;;;;;;;5111406;28;20040;-71
2023/10/18 03:06:14;;;;;;;6.57;3.67;;;16.60;99.90;;;;;;5111445;28;20052;-71
2023/10/18 03:09:53;;;;;;;4.43;3.35;;;;;;;;;;5111358;28;20039;-71
2023/10/18 03:12:52;;;;;;;5.28;3.38;;;;;;;;;;5111145;28;20032;-72
2023/10/18 03:16:15;;;;;;;6.25;3.60;;;;;;;;;;5111251;28;20052;-71
2023/10/18 03:19:19;;;;;;;8.30;3.50;;;;;;;;;;5111208;28;20040;-71
2023/10/18 03:22:29;;;;;;;5.20;3.85;;;17.10;99.90;;;;;;5111496;28;20479;-72
2023/10/18 03:25:34;;;;;;;;;;;16.80;99.90;;;;;;5110777;28;20036;-72
2023/10/18 03:28:43;;;;;;;6.32;3.50;;;;;;;;;;5111521;28;19915;-72
2023/10/18 03:31:50;;;;;;;7.55;3.22;;;;;;;;;;5110556;28;20035;-72
2023/10/18 03:34:56;;;;;;;7.85;3.47;;;;;;;;;;5110366;28;20040;-72
2023/10/18 03:38:03;;;;;;;4.43;3.22;;;;;;;;;;5114952;28;20035;-71
2023/10/18 03:41:16;;;;;;;4.85;2.85;;;;;;;;;;5114440;28;20143;-71
2023/10/18 03:44:21;;;;;;;7.25;3.60;;;;;;;;;;5114030;28;20035;-71
2023/10/18 03:47:28;;;;;;;10.18;3.63;;;;;;;;;;5115027;28;20051;-71
2023/10/18 03:50:40;;;;;;;5.28;3.40;;;;;;;;;;5114145;28;20498;-71
2023/10/18 03:53:48;;;;;;;5.75;3.70;;;18.30;99.90;;;;;;5113971;28;20028;-72
2023/10/18 03:56:55;;;;;;;6.85;3.75;;;;;;;;;;5113746;28;20082;-71
2023/10/18 04:00:28;;;;;;;7.38;3.50;;;;;;;;;;5114889;28;20027;-71
2023/10/18 04:03:29;;;;;;;6.22;3.70;;;;;;;;;;5114678;28;20499;-72
2023/10/18 04:06:35;;;;;;;7.07;4.95;;;;;;;;;;5114319;28;20036;-72
2023/10/18 04:12:54;;;;;;;7.28;3.80;;;;;;;;;;5114312;28;20367;-72
2023/10/18 04:16:10;;;;;;;8.55;4.03;;;;;;;;;;5114154;28;20403;-72
2023/10/18 04:19:19;;;;;;;9.18;4.43;;;;;;;;;;5114377;28;20032;-72
2023/10/18 04:22:24;;;;;;;12.15;4.80;;;;;;;;;;5114309;28;20035;-72
2023/10/18 04:25:31;;;;;;;9.18;4.20;;;;;;;;;;5114159;28;20039;-71
2023/10/18 04:28:38;;;;;;;10.98;4.32;;;;;;;;;;5114059;28;20035;-72
2023/10/18 04:31:44;;;;;;;8.70;3.70;;;;;;;;;;5113893;28;20032;-72
2023/10/18 04:34:48;;;;;;;5.32;3.55;;;;;;;;;;5114107;28;20044;-72
2023/10/18 04:37:53;;;;;;;9.23;4.25;;;;;;;;;;5113871;28;20151;-72
2023/10/18 04:41:07;;;;;;;8.32;4.10;;;;;;;;;;5114024;28;20032;-72
2023/10/18 04:44:18;;;;;;;13.05;5.07;;;;;;;;;;5113886;28;20036;-72
2023/10/18 04:47:31;;;;;;;10.17;4.30;;;;;;;;;;5113553;28;20043;-72
2023/10/18 04:50:39;;;;;;;7.57;4.07;;;;;;;;;;5113690;28;20494;-72
2023/10/18 04:53:45;;;;;;;9.00;3.50;;;;;;;;;;5113396;28;20032;-72
2023/10/18 04:56:56;;;;;;;9.18;3.25;;;;;;;;;;5113382;28;20039;-72
2023/10/18 05:00:10;;;;;;;15.02;7.72;;;;;;;;;;5113478;28;20024;-72
2023/10/18 05:03:14;;;;;;;7.03;4.47;;;;;;;;;;5113174;28;20392;-72
2023/10/18 05:06:19;;;;;;;11.02;4.15;;;;;;;;;;5113222;28;20028;-72
2023/10/18 05:16:04;;;;;;;8.80;3.40;;;15.10;99.90;;;;;;5112767;28;20490;-72
2023/10/18 05:19:11;;;;;;;11.43;3.95;;;;;;;;;;5113157;28;20051;-72
2023/10/18 05:22:25;;;;;;;12.25;4.13;;;;;;;;;;5112823;28;20039;-72
2023/10/18 05:25:33;;;;;;;9.88;3.58;;;;;;;;;;5113274;28;20036;-72
2023/10/18 05:28:49;;;;;;;8.35;3.50;;;;;;;;;;5112924;28;20027;-64
2023/10/18 05:32:06;;;;;;;4.93;3.00;;;;;;;;;;5112114;28;20039;-64
2023/10/18 05:35:21;;;;;;;10.65;3.65;;;;;;;;;;5113043;28;20028;-64
2023/10/18 05:38:48;;;;;;;20.75;8.20;;;;;;;;;;5112500;28;20047;-64
2023/10/18 05:41:51;;;;;;;11.43;4.75;;;;;;;;;;5112820;28;20372;-64
2023/10/18 05:44:55;;;;;;;15.02;5.93;;;;;;;;;;5113226;28;20035;-64
2023/10/18 05:48:03;;;;;;;17.25;5.13;;;;;;;;;;5113085;28;20039;-64
2023/10/18 05:54:28;;;;;;;22.48;7.03;;;;;;;;;;5112214;28;20042;-64
2023/10/18 05:57:33;;;;;;;18.30;5.20;;;;;;;;;;5112401;28;20044;-64
2023/10/18 06:00:38;;;;;;;21.13;4.78;;;;;;;;;;5112439;28;20039;-64
2023/10/18 06:03:42;;;;;;;15.40;4.20;;;;;;;;;;5112006;28;20048;-64
2023/10/18 06:06:47;;;;;;;13.82;3.88;;;;;;;;;;5112182;28;20039;-64
2023/10/18 06:13:10;;;;;;;14.63;3.97;;;;;;;;;;5111639;28;20035;-65
2023/10/18 06:16:20;;;;;;;16.05;3.80;;;;;;;;;;5112030;28;20482;-63
2023/10/18 06:19:31;;;;;;;17.65;3.63;;;;;;;;;;5112370;28;20356;-64
2023/10/18 06:22:47;;;;;;;12.63;3.40;;;;;;;;;;5111865;28;20043;-64
2023/10/18 06:25:51;;;;;;;10.40;3.80;;;;;;;;;;5111881;28;20372;-63
2023/10/18 06:29:22;;;;;;;10.57;3.50;;;20.70;96.00;;;;;;5111601;28;20047;-63
2023/10/18 06:32:27;;;;;;;17.88;4.00;;;;;;;;;;5111803;28;20050;-63
2023/10/18 06:35:38;;;;;;;15.65;3.78;;;20.10;95.00;;;;;;5111437;28;20032;-63
2023/10/18 06:38:43;;;;;;;13.85;4.65;;;20.30;94.50;;;;;;5111648;28;20054;-62
2023/10/18 06:41:47;;;;;;;9.05;4.10;;;20.50;94.20;;;;;;5111329;28;20038;-63
2023/10/18 06:44:56;;;;;;;11.30;3.53;;;20.70;94.30;;;;;;5110201;28;20067;-62
2023/10/18 06:48:03;;;;;;;16.95;3.90;;;;;;;;;;5111502;28;20145;-62
2023/10/18 06:51:17;;;;;;;11.65;3.65;;;20.50;93.50;;;;;;5111019;28;20032;-62
2023/10/18 06:54:30;;;;;;;7.68;3.13;;;20.70;93.40;;;;;;5111385;28;20042;-62
2023/10/18 06:57:37;;;;;;;11.23;3.20;;;21.10;93.40;;;;;;5110526;28;20050;-64
2023/10/18 07:00:51;;;;;;;14.18;4.22;;;21.30;93.10;;;;;;5111085;28;20042;-61
2023/10/18 07:03:56;;;;;;;17.65;5.25;;;21.20;93.10;;;;;;5110521;28;20066;-61
2023/10/18 07:07:00;;;;;;;11.05;4.90;;;21.00;93.10;;;;;;5111163;28;20039;-61
2023/10/18 07:10:09;;;;;;;12.82;4.88;;;21.50;93.20;;;;;;5112803;28;20058;-60
2023/10/18 07:13:14;;;;;;;10.20;4.82;;;21.50;93.50;;;;;;5115315;28;20043;-61
2023/10/18 07:16:29;;;;;;;18.35;3.88;;;21.50;92.40;;;;;;5115191;28;20509;-61
2023/10/18 07:19:33;;;;;;;12.60;4.40;;;21.90;92.70;;;;;;5115008;28;20502;-61
2023/10/18 07:22:44;;;;;;;12.55;4.43;;;21.40;92.70;;;;;;5115246;28;20046;-61
2023/10/18 07:25:48;;;;;;;15.70;4.97;;;21.60;92.50;;;;;;5115307;28;20047;-61
2023/10/18 07:28:54;;;;;;;5.75;3.75;;;21.50;92.60;;;;;;5114887;28;20035;-61
2023/10/18 07:31:59;;;;;;;9.32;3.72;;;21.80;91.80;;;;;;5114772;28;20051;-61
2023/10/18 07:35:03;;;;;;;19.95;4.97;;;21.90;91.80;;;;;;5115124;28;20501;-61
2023/10/18 07:38:07;;;;;;;10.23;4.18;;;22.00;91.80;;;;;;5114503;28;20410;-60
2023/10/18 07:41:11;;;;;;;8.90;4.90;;;21.90;91.40;;;;;;5114752;28;20043;-61
2023/10/18 07:44:15;;;;;;;12.43;3.47;;;22.00;91.50;;;;;;5115021;28;20046;-61
2023/10/18 07:47:20;;;;;;;13.48;4.40;;;22.10;91.70;;;;;;5114959;28;20046;-61
2023/10/18 07:50:41;;;;;;;15.82;4.60;;;22.30;91.70;;;;;;5114629;28;20042;-61
2023/10/18 07:53:48;;;;;;;7.78;3.40;;;22.30;91.70;;;;;;5114559;28;20402;-60
2023/10/18 07:56:56;;;;;;;5.45;2.50;;;22.30;91.90;;;;;;5114499;28;20509;-60
2023/10/18 08:03:38;;;;;;;7.90;2.13;;;22.00;91.60;;;;;;5072659;28;20048;-61
2023/10/18 08:06:44;;;;;;;10.85;2.28;;;22.20;91.70;;;;;;5114226;28;20039;-61
2023/10/18 08:09:48;;;;;;;4.78;1.90;;;22.20;91.50;;;;;;5114345;28;20054;-61
2023/10/18 08:13:07;;;;;;;4.15;1.70;;;22.20;91.50;;;;;;5114313;28;20498;-61
2023/10/18 08:16:19;;;;;;;7.25;2.17;;;22.40;91.50;;;;;;5113346;28;20055;-61
2023/10/18 08:19:24;;;;;;;8.18;2.33;;;22.50;91.80;;;;;;5114108;28;20039;-61
2023/10/18 08:22:28;;;;;;;12.38;2.58;;;22.60;91.70;;;;;;5113492;28;20500;-61
2023/10/18 08:25:34;;;;;;;3.55;1.58;;;22.80;91.70;;;;;;5113867;28;20039;-61
2023/10/18 08:28:38;;;;;;;6.40;1.85;;;22.90;91.60;;;;;;5114162;28;20482;-62
2023/10/18 08:31:48;;;;;;;6.78;1.85;;;22.90;91.20;;;;;;5113831;28;20039;-60
2023/10/18 08:34:53;;;;;;;12.93;2.10;;;23.00;91.30;;;;;;5113541;28;20039;-61
2023/10/18 08:38:01;;;;;;;6.43;2.08;;;23.00;91.60;;;;;;5113730;28;20399;-61
2023/10/18 08:41:13;;;;;;;6.22;1.75;;;23.10;91.70;;;;;;5113994;28;20043;-61
2023/10/18 08:44:24;;;;;;;5.60;1.70;;;23.10;91.70;;;;;;5113610;28;20039;-61
2023/10/18 08:47:29;;;;;;;;;;;23.20;91.60;;;;;;5113939;28;20047;-61
2023/10/18 08:50:33;;;;;;;4.47;1.48;;;23.40;91.70;;;;;;5113623;28;20462;-61
2023/10/18 08:53:41;;;;;;;5.70;1.50;;;23.50;91.70;;;;;;5113242;28;20039;-61
2023/10/18 08:56:47;;;;;;;7.47;1.67;;;23.50;91.40;;;;;;5113366;28;20056;-61
2023/10/18 08:59:52;;;;;;;4.68;1.27;;;23.40;91.80;;;;;;5113557;28;20044;-62
2023/10/18 09:02:57;;;;;;;6.53;1.30;;;23.40;91.80;;;;;;5113093;28;20076;-61
2023/10/18 09:06:05;;;;;;;4.78;1.60;;;23.20;91.80;;;;;;5113022;28;20046;-61
2023/10/18 09:09:10;;;;;;;2.10;1.02;;;23.20;92.00;;;;;;5113188;28;20043;-61
2023/10/18 09:12:17;;;;;;;3.90;1.38;;;23.30;92.40;;;;;;5113375;28;20487;-60
2023/10/18 09:15:27;;;;;;;3.88;1.40;;;23.40;92.00;;;;;;5113282;28;20047;-61
2023/10/18 09:18:32;;;;;;;5.05;1.63;;;23.40;92.20;;;;;;5113126;28;20055;-61
2023/10/18 09:21:37;;;;;;;5.18;1.30;;;23.70;92.20;;;;;;5113207;28;20050;-61
2023/10/18 09:24:43;;;;;;;7.45;2.03;;;23.70;92.30;;;;;;5113018;28;20062;-61
2023/10/18 09:27:47;;;;;;;2.55;1.05;;;23.90;92.00;;;;;;5113388;28;20047;-61
2023/10/18 09:31:00;;;;;;;9.38;2.25;;;23.90;91.60;;;;;;5112739;28;20484;-61
2023/10/18 09:34:08;;;;;;;5.18;1.50;;;23.90;91.60;;;;;;5111818;28;20062;-61
2023/10/18 09:37:12;;;;;;;6.20;1.50;;;23.80;91.40;;;;;;5112600;28;20051;-61
2023/10/18 09:40:16;;;;;;;3.70;1.50;;;23.80;91.70;;;;;;5112353;28;20044;-61
2023/10/18 09:43:20;;;;;;;3.40;1.30;;;23.80;91.90;;;;;;5111526;28;20510;-62
2023/10/18 09:46:24;;;;;;;1.88;1.00;;;23.90;91.70;;;;;;5112404;28;20058;-63
2023/10/18 09:49:31;;;;;;;5.03;1.25;;;24.20;91.30;;;;;;5112379;28;20039;-61
2023/10/18 09:52:47;;;;;;;5.80;1.30;;;24.30;91.40;;;;;;5112829;28;20582;-62
2023/10/18 09:55:53;;;;;;;3.05;1.10;;;24.50;91.10;;;;;;5112233;28;20096;-62
2023/10/18 09:59:11;;;;;;;4.88;1.40;;;24.40;91.10;;;;;;5112133;28;20044;-62
2023/10/18 10:02:17;;;;;;;3.03;1.40;;;24.50;91.00;;;;;;5112102;28;20039;-63
2023/10/18 10:05:27;;;;;;;3.75;1.35;;;24.60;90.70;;;;;;5099924;28;20058;-63
2023/10/18 10:08:32;;;;;;;5.47;1.70;;;24.50;90.80;;;;;;5112383;28;20044;-63
2023/10/18 10:11:37;;;;;;;13.45;2.00;;;24.50;90.60;;;;;;5111774;28;20043;-63
2023/10/18 10:14:41;;;;;;;2.75;1.58;;;24.20;90.60;;;;;;5111292;28;20051;-63
2023/10/18 10:17:57;;;;;;;3.35;1.58;;;24.00;91.00;;;;;;5112050;28;20499;-62
2023/10/18 10:21:07;;;;;;;2.88;1.08;;;24.00;91.20;;;;;;5112307;28;20039;-62
2023/10/18 10:24:29;;;;;;;5.55;1.40;;;24.20;91.10;;;;;;5111873;28;20046;-63
2023/10/18 10:30:43;;;;;;;2.30;1.30;;;24.30;91.30;;;;;;5111716;28;20038;-62
2023/10/18 10:34:10;;;;;;;2.97;1.30;;;24.40;91.30;;;;;;5111881;28;20058;-61
2023/10/18 10:37:23;;;;;;;3.92;1.40;;;24.50;91.20;;;;;;5111519;28;20405;-61
2023/10/18 10:44:07;;;;;;;1.52;1.00;;;24.80;90.40;;;;;;5111433;28;20039;-63
2023/10/18 10:47:31;;;;;;;4.93;1.35;;;24.80;90.60;;;;;;5110792;28;20027;-62
2023/10/18 10:50:43;;;;;;;3.20;1.20;;;25.00;90.70;;;;;;5111531;28;20039;-62
2023/10/18 10:53:48;;;;;;;4.25;1.42;;;25.00;90.40;;;;;;5111336;28;20031;-63
2023/10/18 10:56:54;;;;;;;2.58;1.35;;;25.00;90.30;;;;;;5111155;28;20052;-62
2023/10/18 11:00:22;;;;;;;4.25;1.40;;;25.00;90.00;;;;;;5111298;28;20036;-62
2023/10/18 11:03:31;;;;;;;2.53;1.55;;;25.00;90.50;;;;;;5111324;28;20044;-62
2023/10/18 11:06:43;;;;;;;2.08;1.10;;;25.00;90.40;;;;;;5111100;28;20048;-62
2023/10/18 11:09:47;;;;;;;2.70;1.40;;;24.90;90.50;;;;;;5109878;28;20044;-62
2023/10/18 11:12:52;;;;;;;4.13;1.60;;;24.90;90.50;;;;;;5110945;28;20050;-62
2023/10/18 11:15:56;;;;;;;2.63;1.40;;;24.80;90.60;;;;;;5111687;28;20042;-62
2023/10/18 11:19:00;;;;;;;4.30;1.92;;;24.70;90.70;;;;;;5111530;28;20064;-63
2023/10/18 11:22:05;;;;;;;5.78;1.35;;;24.60;90.80;;;;;;5111169;28;20391;-62
2023/10/18 11:25:13;;;;;;;2.15;1.17;;;24.50;90.80;;;;;;5111383;28;20028;-62
2023/10/18 11:28:21;;;;;;;6.38;1.70;;;24.40;90.90;;;;;;5111780;28;20065;-62
2023/10/18 11:31:26;;;;;;;3.08;1.60;;;24.30;91.10;;;;;;5114277;28;20396;-62
2023/10/18 11:34:31;;;;;;;3.70;1.30;;;24.30;90.90;;;;;;5113809;28;20031;-62
2023/10/18 11:37:40;;;;;;;2.53;1.30;;;24.20;91.20;;;;;;5111801;28;20066;-63
2023/10/18 11:40:50;;;;;;;7.30;1.63;;;24.20;91.30;;;;;;5110598;28;20028;-62
2023/10/18 11:43:55;;;;;;;2.03;1.17;;;24.10;91.10;;;;;;5111574;28;20043;-61
2023/10/18 11:47:18;;;;;;;2.47;1.30;;;24.10;91.40;;;;;;5110733;28;20039;-62
2023/10/18 11:50:26;;;;;;;2.33;1.50;;;24.00;91.30;;;;;;5111231;28;20043;-62
2023/10/18 11:53:32;;;;;;;2.20;1.02;;;24.00;91.50;;;;;;5110138;28;20035;-63
2023/10/18 11:56:37;;;;;;;2.45;1.17;;;23.90;91.70;;;;;;5111000;28;20044;-62
2023/10/18 11:59:52;;;;;;;3.97;1.10;;;23.90;91.80;;;;;;5113141;28;20042;-62
2023/10/18 12:02:56;;;;;;;2.00;1.25;;;23.90;91.60;;;;;;5113410;28;20610;-62
2023/10/18 12:06:02;;;;;;;4.25;1.67;;;23.90;91.90;;;;;;5114051;28;20044;-61
2023/10/18 12:09:30;;;;;;;3.65;1.20;;;23.80;91.80;;;;;;5114218;28;20043;-61
2023/10/18 12:12:34;;;;;;;4.10;1.48;;;23.80;92.10;;;;;;5114215;28;20039;-63
2023/10/18 12:15:39;;;;;;;3.38;1.20;;;23.90;92.20;;;;;;5114149;28;20035;-62
2023/10/18 12:18:42;;;;;;;2.42;1.25;;;23.80;92.30;;;;;;5114336;28;20054;-62
2023/10/18 12:21:54;;;;;;;3.22;1.55;;;23.80;92.30;;;;;;5113743;28;20042;-62
2023/10/18 12:24:58;;;;;;;3.03;1.35;;;23.80;92.30;;;;;;5114178;28;20046;-63
2023/10/18 12:28:03;;;;;;;3.00;1.85;;;23.70;92.10;;;;;;5114200;28;20054;-63
2023/10/18 12:31:13;;;;;;;4.03;1.30;;;23.70;92.30;;;;;;5114349;28;20053;-64
2023/10/18 12:34:21;;;;;;;3.83;1.90;;;23.70;92.30;;;;;;5114263;28;20502;-64
2023/10/18 12:37:26;;;;;;;3.13;1.60;;;23.60;92.20;;;;;;5113956;28;20522;-63
2023/10/18 12:40:32;;;;;;;3.25;1.83;;;23.60;91.90;;;;;;5114217;28;20044;-63
2023/10/18 12:43:39;;;;;;;3.60;1.60;;;23.50;92.20;;;;;;5114203;28;20083;-64
2023/10/18 12:46:43;;;;;;;2.60;1.63;;;23.50;92.20;;;;;;5114063;28;20039;-63
2023/10/18 12:49:51;;;;;;;4.45;1.40;;;23.50;92.10;;;;;;5112965;28;20407;-63
2023/10/18 12:53:17;;;;;;;3.67;1.80;;;23.50;92.00;;;;;;5113709;28;20035;-66
2023/10/18 12:56:31;;;;;;;3.80;2.50;;;23.50;92.20;;;;;;5113040;28;20044;-61
2023/10/18 13:06:15;;;;;;;2.92;1.85;;;23.50;92.40;;;;;;5113880;28;20039;-61
2023/10/18 13:09:19;;;;;;;3.08;1.50;;;23.50;92.60;;;;;;5113200;28;20032;-62
2023/10/18 13:12:23;;;;;;;3.67;2.10;;;23.50;92.80;;;;;;5113234;28;20042;-61
2023/10/18 13:15:28;;;;;;;3.75;2.30;;;23.50;93.00;;;;;;5113312;28;20043;-61
2023/10/18 13:18:31;;;;;;;7.82;1.90;;;23.50;93.20;;;;;;5112742;28;20055;-62
2023/10/18 13:21:39;;;;;;;5.65;1.75;;;23.40;93.40;;;;;;5112806;28;20027;-59
2023/10/18 13:24:44;;;;;;;2.83;1.50;;;23.40;93.50;;;;;;5110904;28;20418;-60
2023/10/18 13:27:49;;;;;;;3.08;1.60;;;23.40;93.70;;;;;;5113290;28;20039;-61
2023/10/18 13:30:53;;;;;;;5.85;2.13;;;23.40;93.80;;;;;;5113321;28;20046;-62
2023/10/18 13:34:06;;;;;;;3.35;1.63;;;23.40;93.90;;;;;;5112935;28;20050;-61
2023/10/18 13:37:12;;;;;;;4.72;1.65;;;23.40;94.00;;;;;;5112490;28;20414;-62
2023/10/18 13:40:19;;;;;;;8.20;1.80;;;23.40;94.00;;;;;;5112494;28;20047;-62
2023/10/18 13:43:24;;;;;;;4.82;1.52;;;23.40;93.80;;;;;;5112740;28;20047;-62
2023/10/18 13:46:29;;;;;;;7.05;1.95;;;23.30;94.00;;;;;;5100028;28;20051;-62
2023/10/18 13:49:34;;;;;;;9.77;3.60;;;23.40;94.30;;;;;;5112447;28;20050;-61
2023/10/18 13:52:41;;;;;;;7.38;2.35;;;23.40;94.60;;;;;;5112287;28;20503;-61
2023/10/18 13:55:44;;;;;;;6.95;2.63;;;23.30;94.50;;;;;;5112324;28;20044;-61
2023/10/18 13:58:48;;;;;;;5.45;2.13;;;23.30;94.90;;;;;;5111873;28;20043;-61
2023/10/18 14:01:54;;;;;;;11.07;3.53;;;23.20;95.00;;;;;;5112182;28;20372;-61
2023/10/18 14:04:58;;;;;;;9.98;3.00;;;23.10;94.80;;;;;;5110044;28;20050;-62
2023/10/18 14:08:03;;;;;;;5.07;2.25;;;23.10;94.60;;;;;;5111939;28;20506;-61
2023/10/18 14:11:07;;;;;;;5.57;2.22;;;23.10;94.70;;;;;;5111991;28;20075;-61
2023/10/18 14:14:12;;;;;;;5.68;2.78;;;23.10;94.60;;;;;;5111954;28;20028;-61
2023/10/18 14:17:16;;;;;;;7.15;2.72;;;23.10;94.40;;;;;;5111493;28;20040;-61
2023/10/18 14:20:30;;;;;;;7.80;2.70;;;23.10;93.90;;;;;;5111192;28;20038;-62
2023/10/18 14:23:35;;;;;;;4.35;2.00;;;23.10;94.10;;;;;;5111771;28;20044;-61
2023/10/18 14:26:39;;;;;;;3.55;1.48;;;23.10;94.10;;;;;;5111759;28;20036;-61
2023/10/18 14:29:46;;;;;;;6.65;1.70;;;23.10;93.90;;;;;;5110815;28;20066;-61
2023/10/18 14:32:50;;;;;;;3.75;1.52;;;23.10;93.90;;;;;;5111597;28;20039;-61
2023/10/18 14:35:54;;;;;;;5.40;1.75;;;23.00;94.10;;;;;;5111697;28;20048;-62
2023/10/18 14:38:58;;;;;;;3.88;1.58;;;23.10;94.10;;;;;;5111262;28;20083;-62
2023/10/18 14:42:02;;;;;;;5.10;1.80;;;23.10;94.10;;;;;;5111761;28;20043;-62
2023/10/18 14:45:10;;;;;;;3.20;1.75;;;23.10;94.10;;;;;;5111798;28;20058;-62
2023/10/18 14:48:15;;;;;;;7.82;2.42;;;23.10;94.10;;;;;;5111769;28;20039;-62
2023/10/18 14:51:24;;;;;;;5.10;2.90;;;23.10;94.20;;;;;;5111466;28;20046;-62
2023/10/18 14:54:28;;;;;;;10.50;3.03;;;23.00;94.10;;;;;;5111699;28;20054;-60
2023/10/18 14:57:32;;;;;;;7.13;2.95;;;23.00;94.50;;;;;;5111460;28;20043;-62
2023/10/18 15:00:36;;;;;;;9.27;3.70;;;22.90;94.60;;;;;;5111627;28;20050;-64
2023/10/18 15:03:45;;;;;;;11.52;4.10;;;23.00;94.90;;;;;;5110888;28;20046;-63
2023/10/18 15:06:49;;;;;;;10.68;3.45;;;22.90;95.00;;;;;;5111351;28;20091;-63
2023/10/18 15:09:54;;;;;;;8.27;3.28;;;22.90;95.10;;;;;;5111328;28;20046;-62
2023/10/18 15:12:59;;;;;;;6.30;2.70;;;22.90;95.10;;;;;;5111418;28;20046;-63
2023/10/18 15:16:07;;;;;;;8.00;3.58;;;22.80;95.00;;;;;;5111432;28;20647;-62
2023/10/18 15:19:14;;;;;;;8.68;3.08;;;22.80;95.00;;;;;;5111361;28;20059;-61
2023/10/18 15:22:20;;;;;;;9.48;3.00;;;22.80;95.20;;;;;;5111465;28;20047;-61
2023/10/18 15:25:24;;;;;;;8.25;3.22;;;22.80;95.30;;;;;;5111105;28;20039;-61
2023/10/18 15:28:31;;;;;;;7.10;2.50;;;22.70;95.40;;;;;;5111027;28;20046;-60
2023/10/18 15:31:36;;;;;;;15.65;3.67;;;22.70;95.50;;;;;;5113251;28;20375;-61
2023/10/18 15:34:40;;;;;;;15.40;3.30;;;23.10;95.90;;;;;;5115428;28;20486;-61
2023/10/18 15:37:44;;;;;;;20.42;4.53;;;22.70;96.10;;;;;;5115207;28;20059;-61
2023/10/18 15:40:48;;;;;;;7.07;3.00;;;22.70;96.40;;;;;;5114558;28;20039;-61
2023/10/18 15:44:00;;;;;;;9.32;2.45;;;22.60;96.20;;;;;;5113783;28;20395;-61
2023/10/18 15:47:04;;;;;;;;;;;22.60;96.40;;;;;;5114931;28;20383;-61
2023/10/18 15:50:10;;;;;;;9.18;3.80;;;22.60;96.50;;;;;;5114374;28;19915;-69
2023/10/18 15:53:14;;;;;;;10.07;3.45;;;22.60;96.70;;;;;;5114476;28;20047;-68
2023/10/18 15:56:18;;;;;;;25.38;5.43;;;22.60;97.00;;;;;;5114135;28;20046;-63
2023/10/18 15:59:22;;;;;;;26.67;4.70;;;22.50;97.30;;;;;;5114825;28;20082;-64
2023/10/18 16:02:26;;;;;;;19.90;4.85;;;22.50;97.60;;;;;;5114372;28;20054;-64
2023/10/18 16:05:31;;;;;;;26.85;5.65;;;22.50;97.90;;;;;;5114377;28;20058;-63
2023/10/18 16:08:36;;;;;;;21.35;5.05;;;22.40;98.00;;;;;;5114278;28;20462;-60
2023/10/18 16:11:42;;;;;;;19.67;5.22;;;22.40;98.10;;;;;;5114520;28;20051;-63
2023/10/18 16:14:46;;;;;;;26.65;4.35;;;22.40;98.10;;;;;;5114357;28;20054;-62
2023/10/18 16:17:51;;;;;;;15.18;4.45;;;22.30;98.20;;;;;;5114305;28;20050;-63
2023/10/18 16:21:01;;;;;;;12.07;4.10;;;22.30;98.30;;;;;;5114088;28;20051;-63
2023/10/18 16:24:05;;;;;;;12.45;3.90;;;22.20;98.20;;;;;;5114489;28;20058;-64
2023/10/18 16:27:10;;;;;;;13.90;4.63;;;22.20;98.00;;;;;;5113418;28;20055;-62
2023/10/18 16:30:15;;;;;;;15.98;5.60;;;22.20;97.80;;;;;;5114303;28;20038;-63
2023/10/18 16:33:19;;;;;;;17.35;5.47;;;22.30;97.70;;;;;;5114137;28;20058;-61
2023/10/18 16:36:24;;;;;;;22.88;5.53;;;22.20;97.80;;;;;;5113353;28;20042;-61
2023/10/18 16:39:29;;;;;;;16.45;5.60;;;22.20;97.90;;;;;;5112843;28;20415;-63
2023/10/18 16:42:34;;;;;;;17.70;7.18;;;22.20;98.10;;;;;;5111947;28;20043;-61
2023/10/18 16:45:40;;;;;;;18.92;5.70;;;22.20;98.40;;;;;;5113779;28;20058;-61
2023/10/18 16:48:46;;;;;;;23.35;6.18;;;22.20;98.30;;;;;;5113802;28;20512;-61
2023/10/18 16:51:52;;;;;;;18.00;5.90;;;22.10;98.60;;;;;;5113218;28;20046;-61
2023/10/18 16:54:56;;;;;;;15.90;6.78;;;22.10;98.70;;;;;;5112462;28;20394;-69
2023/10/18 16:58:03;;;;;;;17.30;5.70;;;22.10;98.40;;;;;;5113259;28;20059;-69
2023/10/18 17:01:12;;;;;;;22.25;5.47;;;22.10;98.40;;;;;;5112143;28;20046;-69
2023/10/18 17:04:17;;;;;;;21.98;6.22;;;22.00;98.80;;;;;;5112498;28;20517;-69
2023/10/18 17:07:21;;;;;;;22.40;6.30;;;22.00;99.00;;;;;;5113380;28;20051;-70
2023/10/18 17:10:25;;;;;;;28.13;6.70;;;21.90;99.50;;;;;;5112822;28;20043;-69
2023/10/18 17:13:29;;;;;;;29.33;6.30;;;21.90;99.90;;;;;;5113414;28;20054;-69
2023/10/18 17:16:35;;;;;;;19.67;6.43;;;21.80;99.90;;;;;;5113083;28;20046;-69
2023/10/18 17:19:40;;;;;;;23.13;6.45;;;21.90;99.90;;;;;;5113292;28;20046;-69
2023/10/18 17:22:45;;;;;;;14.98;6.03;;;21.60;99.90;;;;;;5112718;28;20035;-69
2023/10/18 17:25:49;;;;;;;27.23;6.13;;;21.60;99.90;;;;;;5113330;28;20043;-69
2023/10/18 17:28:53;;;;;;;40.03;8.45;;;21.60;99.90;;;;;;5112978;28;20046;-69
2023/10/18 17:31:57;;;;;;;28.92;7.55;;;21.60;99.90;;;;;;5112985;28;20051;-69
2023/10/18 17:35:01;;;;;;;32.28;6.65;;;21.50;99.90;;;;;;5113149;28;20513;-69